createdAt,value
2017-09-13T00:03:18.141Z,14.00
2017-09-13T00:08:14.931Z,14.07
2017-09-13T00:13:11.646Z,13.97
2017-09-13T00:18:07.118Z,14.00
2017-09-13T00:23:03.274Z,14.00
2017-09-13T00:27:59.109Z,14.00
2017-09-13T00:32:54.970Z,14.07
2017-09-13T00:37:50.865Z,14.10
2017-09-13T00:42:47.599Z,13.95
2017-09-13T00:47:42.953Z,14.04
2017-09-13T00:52:39.122Z,14.11
2017-09-13T00:57:35.839Z,14.11
2017-09-13T01:02:32.492Z,14.04
2017-09-13T01:07:28.790Z,13.99
2017-09-13T01:12:24.437Z,14.05
2017-09-13T01:17:20.117Z,14.10
2017-09-13T01:22:15.664Z,14.00
2017-09-13T01:27:12.933Z,14.03
2017-09-13T01:32:09.574Z,14.05
2017-09-13T01:37:05.777Z,14.03
2017-09-13T01:42:01.618Z,14.17
2017-09-13T01:46:57.489Z,14.17
2017-09-13T01:51:53.366Z,14.15
2017-09-13T01:56:50.582Z,14.17
2017-09-13T02:01:47.294Z,14.03
2017-09-13T02:06:42.741Z,13.97
2017-09-13T02:11:39.575Z,13.89
2017-09-13T02:16:35.258Z,13.74
2017-09-13T02:21:31.095Z,13.56
2017-09-13T02:26:27.796Z,13.44
2017-09-13T02:31:24.238Z,13.39
2017-09-13T02:36:19.512Z,13.41
2017-09-13T02:41:17.226Z,13.31
2017-09-13T02:46:12.719Z,13.38
2017-09-13T02:51:09.440Z,13.20
2017-09-13T02:56:06.297Z,13.15
2017-09-13T03:01:01.515Z,13.08
2017-09-13T03:05:57.287Z,12.95
2017-09-13T03:10:52.969Z,12.87
2017-09-13T03:15:49.763Z,12.94
2017-09-13T03:20:45.332Z,12.90
2017-09-13T03:25:42.098Z,12.86
2017-09-13T03:30:37.650Z,12.90
2017-09-13T03:35:33.434Z,12.87
2017-09-13T03:40:29.389Z,12.86
2017-09-13T03:45:25.013Z,12.97
2017-09-13T03:50:21.034Z,12.98
2017-09-13T03:55:16.950Z,12.90
2017-09-13T04:00:13.774Z,12.93
2017-09-13T04:05:10.622Z,12.91
2017-09-13T04:10:06.189Z,12.93
2017-09-13T04:15:02.070Z,13.01
2017-09-13T04:19:58.157Z,13.00
2017-09-13T04:24:53.802Z,12.80
2017-09-13T04:29:50.594Z,12.86
2017-09-13T04:34:46.054Z,12.87
2017-09-13T04:39:41.937Z,12.90
2017-09-13T04:44:37.730Z,12.85
2017-09-13T04:49:34.450Z,12.86
2017-09-13T04:54:30.199Z,12.86
2017-09-13T04:59:25.984Z,12.87
2017-09-13T05:04:21.515Z,12.87
2017-09-13T05:09:17.483Z,12.86
2017-09-13T05:14:13.748Z,12.91
2017-09-13T05:19:09.621Z,12.98
2017-09-13T05:24:06.506Z,13.04
2017-09-13T05:29:03.021Z,12.98
2017-09-13T05:33:58.585Z,12.98
2017-09-13T05:38:54.624Z,13.01
2017-09-13T05:43:49.932Z,13.05
2017-09-13T05:48:45.795Z,13.04
2017-09-13T05:53:43.205Z,13.11
2017-09-13T05:58:39.905Z,13.09
2017-09-13T06:03:36.634Z,13.05
2017-09-13T06:08:31.857Z,13.20
2017-09-13T06:13:27.631Z,13.16
2017-09-13T06:18:24.052Z,13.27
2017-09-13T06:23:19.819Z,13.31
2017-09-13T06:28:16.282Z,13.49
2017-09-13T06:33:12.258Z,13.46
2017-09-13T06:38:08.942Z,13.53
2017-09-13T06:43:04.464Z,13.33
2017-09-13T06:48:00.228Z,13.50
2017-09-13T06:52:56.786Z,13.56
2017-09-13T06:57:54.894Z,13.67
2017-09-13T07:02:50.727Z,13.89
2017-09-13T07:07:46.677Z,14.07
2017-09-13T07:12:42.837Z,14.36
2017-09-13T07:17:39.275Z,14.70
2017-09-13T07:22:35.224Z,14.85
2017-09-13T07:27:31.484Z,15.15
2017-09-13T07:32:27.693Z,15.31
2017-09-13T07:37:24.162Z,15.47
2017-09-13T07:42:21.255Z,15.46
2017-09-13T07:47:16.883Z,15.42
2017-09-13T07:52:13.109Z,15.55
2017-09-13T07:57:09.614Z,15.58
2017-09-13T08:02:06.308Z,15.54
2017-09-13T08:07:01.905Z,15.58
2017-09-13T08:11:57.894Z,15.58
2017-09-13T08:16:54.728Z,15.91
2017-09-13T08:21:50.673Z,15.94
2017-09-13T08:26:47.349Z,16.38
2017-09-13T08:31:43.224Z,16.38
2017-09-13T08:36:40.133Z,16.46
2017-09-13T08:41:36.277Z,16.78
2017-09-13T08:46:32.539Z,17.14
2017-09-13T08:51:29.693Z,17.16
2017-09-13T08:56:26.573Z,17.11
2017-09-13T09:01:22.212Z,16.93
2017-09-13T09:06:17.624Z,16.78
2017-09-13T09:11:14.660Z,16.96
2017-09-13T09:16:10.108Z,17.27
2017-09-13T09:21:05.830Z,16.74
2017-09-13T09:26:01.692Z,16.32
2017-09-13T09:30:57.328Z,15.51
2017-09-13T09:35:53.855Z,14.99
2017-09-13T09:40:49.263Z,14.97
2017-09-13T09:45:45.447Z,15.27
2017-09-13T09:50:43.086Z,15.59
2017-09-13T09:55:38.171Z,15.55
2017-09-13T10:00:33.439Z,15.42
2017-09-13T10:05:29.043Z,15.07
2017-09-13T10:10:25.017Z,15.46
2017-09-13T10:15:21.788Z,15.80
2017-09-13T10:20:19.335Z,16.64
2017-09-13T10:25:15.534Z,17.06
2017-09-13T10:30:11.950Z,17.65
2017-09-13T10:35:08.116Z,17.92
2017-09-13T10:40:03.987Z,18.35
2017-09-13T10:45:00.112Z,18.33
2017-09-13T10:49:57.330Z,18.99
2017-09-13T10:54:55.464Z,19.59
2017-09-13T10:59:52.788Z,19.74
2017-09-13T11:04:50.374Z,19.15
2017-09-13T11:09:45.909Z,19.15
2017-09-13T11:14:41.865Z,19.36
2017-09-13T11:19:40.101Z,19.96
2017-09-13T11:24:36.108Z,19.41
2017-09-13T11:29:31.305Z,18.96
2017-09-13T11:34:26.410Z,18.41
2017-09-13T11:39:22.219Z,18.66
2017-09-13T11:44:19.671Z,19.71
2017-09-13T11:49:16.555Z,19.64
2017-09-13T11:54:12.870Z,19.29
2017-09-13T11:59:09.066Z,19.36
2017-09-13T12:04:04.295Z,19.19
2017-09-13T12:09:00.465Z,19.45
2017-09-13T12:13:56.040Z,19.04
2017-09-13T12:18:51.724Z,18.66
2017-09-13T12:23:46.681Z,18.71
2017-09-13T12:28:42.336Z,18.80
2017-09-13T12:33:37.927Z,18.40
2017-09-13T12:38:33.398Z,18.49
2017-09-13T12:43:31.438Z,18.77
2017-09-13T12:48:27.883Z,18.96
2017-09-13T12:53:24.519Z,18.95
2017-09-13T12:58:21.211Z,18.95
2017-09-13T13:03:16.699Z,18.92
2017-09-13T13:08:12.961Z,18.90
2017-09-13T13:13:09.690Z,18.93
2017-09-13T13:18:05.348Z,18.83
2017-09-13T13:23:01.460Z,18.73
2017-09-13T13:27:58.440Z,18.62
2017-09-13T13:32:54.794Z,18.49
2017-09-13T13:37:50.529Z,18.45
2017-09-13T13:42:46.161Z,18.38
2017-09-13T13:47:41.997Z,18.22
2017-09-13T13:52:40.043Z,18.28
2017-09-13T13:57:35.665Z,18.33
2017-09-13T14:02:31.085Z,18.29
2017-09-13T14:07:28.015Z,18.49
2017-09-13T14:12:25.646Z,18.47
2017-09-13T14:17:21.008Z,18.31
2017-09-13T14:22:16.792Z,18.34
2017-09-13T14:27:12.890Z,18.26
2017-09-13T14:32:09.595Z,18.22
2017-09-13T14:37:04.994Z,18.35
2017-09-13T14:42:00.949Z,18.23
2017-09-13T14:46:56.837Z,18.33
2017-09-13T14:51:52.644Z,18.19
2017-09-13T14:56:49.811Z,18.26
2017-09-13T15:01:45.318Z,18.29
2017-09-13T15:06:41.033Z,18.23
2017-09-13T15:11:36.856Z,18.31
2017-09-13T15:16:34.031Z,18.29
2017-09-13T15:21:30.423Z,18.28
2017-09-13T15:26:25.852Z,18.26
2017-09-13T15:31:21.745Z,18.07
2017-09-13T15:36:17.592Z,17.95
2017-09-13T15:41:13.218Z,17.74
2017-09-13T15:46:09.248Z,17.59
2017-09-13T15:51:04.856Z,17.56
2017-09-13T15:56:01.075Z,17.48
2017-09-13T16:00:56.761Z,17.36
2017-09-13T16:05:52.775Z,17.29
2017-09-13T16:10:48.652Z,17.05
2017-09-13T16:15:44.806Z,17.01
2017-09-13T16:20:40.991Z,16.93
2017-09-13T16:25:37.628Z,16.79
2017-09-13T16:30:33.648Z,16.69
2017-09-13T16:35:29.467Z,16.66
2017-09-13T16:40:25.169Z,16.65
2017-09-13T16:45:21.649Z,16.54
2017-09-13T16:50:18.330Z,16.51
2017-09-13T16:55:13.849Z,16.42
2017-09-13T17:00:10.666Z,16.36
2017-09-13T17:05:06.305Z,16.31
2017-09-13T17:10:02.198Z,16.28
2017-09-13T17:14:57.941Z,16.21
2017-09-13T17:19:53.663Z,16.17
2017-09-13T17:24:50.406Z,16.17
2017-09-13T17:29:47.012Z,16.20
2017-09-13T17:34:43.422Z,16.09
2017-09-13T17:39:39.100Z,15.76
2017-09-13T17:44:35.860Z,15.73
2017-09-13T17:49:33.278Z,15.62
2017-09-13T17:54:28.786Z,15.47
2017-09-13T17:59:24.860Z,15.19
2017-09-13T18:04:20.594Z,14.99
2017-09-13T18:09:17.705Z,14.68
2017-09-13T18:14:15.214Z,14.30
2017-09-13T18:19:10.179Z,14.08
2017-09-13T18:24:06.851Z,13.87
2017-09-13T18:29:03.174Z,13.85
2017-09-13T18:33:58.649Z,13.65
2017-09-13T18:38:54.141Z,13.70
2017-09-13T18:43:49.962Z,13.60
2017-09-13T18:48:47.749Z,13.31
2017-09-13T18:53:43.731Z,13.09
2017-09-13T18:58:40.599Z,13.16
2017-09-13T19:03:36.912Z,13.05
2017-09-13T19:08:33.324Z,13.13
2017-09-13T19:13:28.911Z,13.05
2017-09-13T19:18:25.428Z,13.00
2017-09-13T19:23:20.932Z,12.86
2017-09-13T19:28:16.667Z,12.73
2017-09-13T19:33:12.494Z,12.95
2017-09-13T19:38:08.721Z,13.05
2017-09-13T19:43:04.502Z,12.98
2017-09-13T19:48:00.409Z,13.03
2017-09-13T19:52:56.091Z,12.98
2017-09-13T19:57:52.869Z,12.94
2017-09-13T20:02:48.500Z,13.04
2017-09-13T20:07:45.325Z,13.15
2017-09-13T20:12:41.102Z,13.27
2017-09-13T20:17:36.875Z,13.18
2017-09-13T20:22:33.662Z,13.05
2017-09-13T20:27:29.384Z,13.08
2017-09-13T20:32:26.296Z,13.04
2017-09-13T20:37:21.774Z,13.20
2017-09-13T20:42:18.554Z,13.23
2017-09-13T20:47:14.139Z,13.31
2017-09-13T20:52:10.659Z,13.39
2017-09-13T20:57:07.414Z,13.38
2017-09-13T21:02:03.359Z,13.37
2017-09-13T21:06:59.488Z,13.22
2017-09-13T21:11:55.043Z,13.23
2017-09-13T21:16:51.014Z,13.35
2017-09-13T21:21:47.048Z,13.59
2017-09-13T21:26:42.958Z,13.62
2017-09-13T21:31:38.765Z,13.54
2017-09-13T21:36:34.560Z,13.57
2017-09-13T21:41:31.242Z,13.62
2017-09-13T21:46:27.177Z,13.47
2017-09-13T21:51:22.922Z,13.25
2017-09-13T21:56:18.828Z,13.30
2017-09-13T22:01:15.624Z,13.44
2017-09-13T22:06:11.078Z,13.30
2017-09-13T22:11:06.823Z,13.39
2017-09-13T22:16:02.511Z,13.50
2017-09-13T22:20:58.142Z,13.44
2017-09-13T22:25:54.313Z,13.37
2017-09-13T22:30:50.319Z,13.27
2017-09-13T22:35:47.064Z,13.28
2017-09-13T22:40:43.406Z,13.31
2017-09-13T22:45:40.226Z,13.30
2017-09-13T22:50:36.801Z,13.28
2017-09-13T22:55:32.568Z,13.23
2017-09-13T23:00:28.530Z,13.33
2017-09-13T23:05:24.404Z,13.35
2017-09-13T23:10:20.279Z,13.05
2017-09-13T23:15:16.026Z,12.98
2017-09-13T23:20:11.798Z,13.00
2017-09-13T23:25:07.313Z,12.91
2017-09-13T23:30:02.864Z,12.80
2017-09-13T23:34:58.734Z,12.73
2017-09-13T23:39:55.057Z,12.60
2017-09-13T23:44:50.598Z,12.54
2017-09-13T23:49:46.474Z,12.60
2017-09-13T23:54:42.373Z,12.54
2017-09-13T23:59:38.192Z,12.43
